Time;durP1;ratioP1;P1;durP2;ratioP2;P2;SDS_P1;SDS_P2;PMS_P1;PMS_P2;Temp;Humidity;BMP_temperature;BMP_pressure;BME280_temperature;BME280_humidity;BME280_pressure;Samples;Min_cycle;Max_cycle;Signal;HPM_P1;HPM_P2
2022/04/24 00:00:58;;;;;;;0.30;0.30;;;13.00;99.90;;;13.54;nan;98822.34;5003159;28;20644;-71
2022/04/24 00:03:25;;;;;;;0.30;0.30;;;13.00;99.90;;;13.48;nan;98811.75;4993325;28;20707;-73
2022/04/24 00:05:52;;;;;;;0.30;0.30;;;12.90;99.90;;;13.49;nan;98811.56;4992908;28;21059;-72
2022/04/24 00:08:19;;;;;;;0.30;0.20;;;13.00;99.90;;;13.51;nan;98817.44;5007513;28;20971;-72
2022/04/24 00:10:46;;;;;;;0.30;0.30;;;13.00;99.90;;;13.39;nan;98803.13;5005359;28;20640;-71
2022/04/24 00:13:13;;;;;;;0.30;0.20;;;12.90;99.90;;;13.49;nan;98808.94;5011658;28;20628;-71
2022/04/24 00:15:40;;;;;;;0.47;0.47;;;13.00;99.90;;;13.53;nan;98812.03;5012391;28;20609;-71
2022/04/24 00:18:08;;;;;;;0.30;0.30;;;13.00;99.90;;;13.40;nan;98802.13;5013304;28;20626;-71
2022/04/24 00:20:35;;;;;;;0.30;0.30;;;12.90;99.90;;;13.37;nan;98809.50;5012070;28;20637;-72
2022/04/24 00:23:02;;;;;;;0.30;0.30;;;12.90;99.90;;;13.39;nan;98800.50;5011325;28;20633;-71
2022/04/24 00:25:29;;;;;;;0.30;0.30;;;12.90;99.90;;;13.43;nan;98804.41;5011996;28;20629;-71
2022/04/24 00:27:56;;;;;;;0.30;0.20;;;12.90;99.90;;;13.42;nan;98800.13;5002629;28;20666;-72
2022/04/24 00:30:23;;;;;;;0.30;0.30;;;12.90;99.90;;;13.44;nan;98798.16;5010956;28;20637;-72
2022/04/24 00:32:50;;;;;;;0.30;0.20;;;12.90;99.90;;;13.39;nan;98797.88;4997167;28;20629;-71
2022/04/24 00:35:17;;;;;;;0.30;0.30;;;12.90;99.90;;;13.42;nan;98794.06;5000296;28;20633;-71
2022/04/24 00:37:44;;;;;;;0.60;0.60;;;12.90;99.90;;;13.38;nan;98800.66;4992808;28;20618;-71
2022/04/24 00:40:11;;;;;;;0.30;0.30;;;12.90;99.90;;;13.32;nan;98791.69;4993859;28;20654;-71
2022/04/24 00:42:38;;;;;;;0.30;0.20;;;12.80;99.90;;;13.32;nan;98793.47;4991415;28;20634;-71
2022/04/24 00:45:06;;;;;;;0.30;0.30;;;12.80;99.90;;;13.28;nan;98795.66;5003317;28;20642;-71
2022/04/24 00:47:33;;;;;;;0.30;0.30;;;12.80;99.90;;;13.35;nan;98786.13;4998725;28;20641;-71
2022/04/24 00:50:00;;;;;;;0.30;0.30;;;12.90;99.90;;;13.37;nan;98780.69;4997690;28;20678;-71
2022/04/24 00:52:27;;;;;;;0.30;0.27;;;12.80;99.90;;;13.33;nan;98776.81;5002248;28;20638;-71
2022/04/24 00:54:54;;;;;;;0.30;0.20;;;12.90;99.90;;;13.37;nan;98778.09;4991900;28;20745;-71
2022/04/24 00:57:21;;;;;;;0.30;0.30;;;12.90;99.90;;;13.39;nan;98776.09;4993277;28;20639;-72
2022/04/24 00:59:48;;;;;;;0.40;0.40;;;12.90;99.90;;;13.35;nan;98780.06;4996108;28;20664;-71
2022/04/24 01:02:15;;;;;;;0.30;0.30;;;12.90;99.90;;;13.38;nan;98777.91;5000341;28;21201;-74
2022/04/24 01:04:42;;;;;;;0.30;0.30;;;12.90;99.90;;;13.43;nan;98772.97;4992903;28;20716;-72
2022/04/24 01:07:10;;;;;;;0.30;0.30;;;12.90;99.90;;;13.41;nan;98768.88;4991420;28;20631;-72
2022/04/24 01:12:07;;;;;;;0.30;0.20;;;13.00;99.90;;;13.32;nan;98767.28;4948884;28;20651;-65
2022/04/24 01:14:34;;;;;;;0.30;0.30;;;12.90;99.90;;;13.41;nan;98768.88;4952165;28;20647;-66
2022/04/24 01:17:05;;;;;;;2.43;2.23;;;12.90;99.90;;;13.37;nan;98772.84;4952775;28;20643;-65
2022/04/24 01:19:33;;;;;;;0.30;0.20;;;12.90;99.90;;;13.25;nan;98769.78;4967132;28;20636;-65
2022/04/24 01:22:00;;;;;;;0.30;0.20;;;12.80;99.90;;;13.29;nan;98772.91;4954000;28;20628;-65
2022/04/24 01:24:29;;;;;;;0.30;0.30;;;12.80;99.90;;;13.28;nan;98761.59;4952433;29;21209;-65
2022/04/24 01:26:56;;;;;;;0.40;0.40;;;12.80;99.90;;;13.26;nan;98760.13;4954318;28;20635;-65
2022/04/24 01:29:24;;;;;;;0.30;0.30;;;12.70;99.90;;;13.20;nan;98756.41;4951902;29;20675;-65
2022/04/24 01:31:51;;;;;;;0.30;0.30;;;12.70;99.90;;;13.33;nan;98755.84;4953449;28;20640;-66
2022/04/24 01:34:19;;;;;;;0.30;0.30;;;12.80;99.90;;;13.18;nan;98758.38;4951354;29;20618;-65
2022/04/24 01:36:48;;;;;;;0.30;0.23;;;12.80;99.90;;;13.13;nan;98764.13;4952470;28;20640;-66
2022/04/24 01:39:15;;;;;;;0.30;0.30;;;12.70;99.90;;;13.10;nan;98763.63;4953152;28;20687;-65
2022/04/24 01:41:44;;;;;;;0.30;0.20;;;12.60;99.90;;;13.09;nan;98762.03;4952332;28;21005;-65
2022/04/24 01:44:11;;;;;;;0.30;0.27;;;12.60;99.90;;;13.20;nan;98765.06;4951566;28;20648;-65
2022/04/24 01:46:38;;;;;;;0.30;0.30;;;12.70;99.90;;;13.14;nan;98763.13;4952045;28;20682;-65
2022/04/24 01:49:05;;;;;;;0.83;0.83;;;12.60;99.90;;;13.09;nan;98769.88;4952942;28;20669;-66
2022/04/24 01:51:32;;;;;;;0.30;0.20;;;12.60;99.90;;;13.15;nan;98767.41;4951291;28;21037;-63
2022/04/24 01:53:59;;;;;;;0.30;0.20;;;12.70;99.90;;;13.05;nan;98779.06;4951933;28;20997;-66
2022/04/24 01:56:26;;;;;;;0.30;0.30;;;12.60;99.90;;;13.08;nan;98773.47;4952273;28;20635;-66
2022/04/24 01:58:53;;;;;;;0.30;0.20;;;12.60;99.90;;;13.07;nan;98761.38;4952059;28;21193;-66
2022/04/24 02:01:20;;;;;;;0.30;0.30;;;12.70;99.90;;;13.01;nan;98768.06;4952495;28;20648;-66
2022/04/24 02:03:47;;;;;;;0.30;0.20;;;12.60;99.90;;;13.01;nan;98762.03;4951092;29;20636;-66
2022/04/24 02:06:14;;;;;;;0.30;0.20;;;12.50;99.90;;;13.01;nan;98759.41;4949714;28;20633;-66
2022/04/24 02:08:41;;;;;;;0.30;0.20;;;12.60;99.90;;;13.03;nan;98758.25;4951487;28;20672;-66
2022/04/24 02:11:08;;;;;;;0.30;0.30;;;12.60;99.90;;;12.96;nan;98746.84;4948737;29;20667;-66
2022/04/24 02:13:36;;;;;;;0.30;0.30;;;12.60;99.90;;;13.06;nan;98752.69;4951453;29;20973;-63
2022/04/24 02:16:03;;;;;;;0.60;0.60;;;12.60;99.90;;;12.99;nan;98754.34;4949899;29;20644;-65
2022/04/24 02:18:31;;;;;;;0.30;0.20;;;12.50;99.90;;;12.99;nan;98748.31;4951568;28;20636;-65
2022/04/24 02:20:58;;;;;;;0.30;0.30;;;12.50;99.90;;;12.89;nan;98747.69;4956271;28;20648;-65
2022/04/24 02:23:25;;;;;;;0.80;0.70;;;12.50;99.90;;;12.88;nan;98757.34;4952200;28;20705;-66
2022/04/24 02:25:52;;;;;;;0.30;0.20;;;12.40;99.90;;;12.92;nan;98748.16;4936299;29;20625;-66
2022/04/24 02:28:18;;;;;;;0.30;0.20;;;12.40;99.90;;;12.82;nan;98752.78;4951122;29;20656;-67
2022/04/24 02:30:45;;;;;;;0.93;0.93;;;12.40;99.90;;;12.82;nan;98749.38;4956940;28;20659;-65
2022/04/24 02:33:13;;;;;;;0.30;0.20;;;12.30;99.90;;;12.88;nan;98752.13;4955058;29;20627;-67
2022/04/24 02:35:40;;;;;;;0.30;0.20;;;12.40;99.90;;;12.76;nan;98747.41;4955116;29;20682;-64
2022/04/24 02:38:07;;;;;;;0.37;0.30;;;12.40;99.90;;;12.80;nan;98743.47;4954918;28;20663;-66
2022/04/24 02:40:34;;;;;;;0.30;0.30;;;12.40;99.90;;;12.77;nan;98752.47;4956168;28;21229;-66
2022/04/24 02:43:02;;;;;;;0.30;0.30;;;12.30;99.90;;;12.78;nan;98740.19;4954933;28;21056;-66
2022/04/24 02:45:29;;;;;;;0.30;0.20;;;12.30;99.90;;;12.78;nan;98742.81;4955403;28;20619;-66
2022/04/24 02:47:56;;;;;;;0.30;0.30;;;12.30;99.90;;;12.79;nan;98740.03;4955793;29;20620;-66
2022/04/24 02:50:24;;;;;;;0.30;0.20;;;12.30;99.90;;;12.79;nan;98742.66;4955258;28;20671;-66
2022/04/24 02:52:54;;;;;;;14.23;2.73;;;12.30;99.90;;;12.78;nan;98746.25;4956950;28;21132;-66
2022/04/24 02:55:24;;;;;;;0.30;0.30;;;12.30;99.90;;;12.82;nan;98738.88;4954433;28;20636;-65
2022/04/24 02:57:53;;;;;;;0.30;0.20;;;12.40;99.90;;;12.85;nan;98754.22;4954991;28;20682;-65
2022/04/24 03:00:24;;;;;;;0.30;0.20;;;12.40;99.90;;;12.83;nan;98758.81;4954336;28;20660;-66
2022/04/24 03:02:53;;;;;;;0.30;0.27;;;12.40;99.90;;;12.85;nan;98772.56;4955359;29;20674;-66
2022/04/24 03:05:24;;;;;;;0.30;0.20;;;12.40;99.90;;;12.80;nan;98780.13;4952421;28;20659;-65
2022/04/24 03:07:52;;;;;;;0.30;0.20;;;12.40;99.90;;;12.84;nan;98786.66;4949160;28;21019;-65
2022/04/24 03:10:19;;;;;;;0.30;0.20;;;12.30;99.90;;;12.88;nan;98787.94;4957541;28;20749;-66
2022/04/24 03:12:47;;;;;;;0.30;0.20;;;12.40;99.90;;;12.91;nan;98790.19;4974414;28;20615;-66
2022/04/24 03:15:14;;;;;;;0.50;0.50;;;12.40;99.90;;;12.91;nan;98792.81;4974162;28;21054;-65
2022/04/24 03:17:43;;;;;;;0.30;0.20;;;12.40;99.90;;;12.83;nan;98795.47;4975315;28;20615;-63
2022/04/24 03:20:12;;;;;;;1.07;0.77;;;12.40;99.90;;;12.81;nan;98792.19;4975468;28;20650;-67
2022/04/24 03:22:39;;;;;;;5.03;1.63;;;12.40;99.90;;;12.86;nan;98800.38;4973792;28;21035;-65
2022/04/24 03:25:09;;;;;;;0.30;0.20;;;12.40;99.90;;;12.94;nan;98800.34;4972804;28;20639;-66
2022/04/24 03:27:38;;;;;;;0.30;0.20;;;12.50;99.90;;;12.95;nan;98808.00;4973702;28;20631;-66
2022/04/24 03:30:08;;;;;;;0.30;0.20;;;12.50;99.90;;;12.97;nan;98807.84;4972992;28;20678;-65
2022/04/24 03:32:36;;;;;;;0.30;0.30;;;12.50;99.90;;;12.91;nan;98811.97;4966451;28;20627;-64
2022/04/24 03:35:06;;;;;;;0.30;0.30;;;12.50;99.90;;;12.87;nan;98818.53;4972718;28;20638;-65
2022/04/24 03:37:33;;;;;;;0.30;0.20;;;12.40;99.90;;;12.86;nan;98816.06;4973390;28;20631;-65
2022/04/24 03:40:01;;;;;;;0.30;0.20;;;12.40;99.90;;;12.86;nan;98811.63;4972950;28;20662;-64
2022/04/24 03:42:28;;;;;;;1.33;0.73;;;12.40;99.90;;;12.89;nan;98816.53;4973914;28;20661;-66
2022/04/24 03:44:56;;;;;;;0.30;0.30;;;12.40;99.90;;;12.80;nan;98814.13;4972868;28;20658;-65
2022/04/24 03:47:24;;;;;;;0.30;0.30;;;12.40;99.90;;;12.83;nan;98811.16;4971540;28;21019;-65
2022/04/24 03:49:51;;;;;;;0.30;0.20;;;12.30;99.90;;;12.80;nan;98814.13;4973688;28;21267;-66
2022/04/24 03:52:18;;;;;;;0.30;0.30;;;12.40;99.90;;;12.79;nan;98813.31;4973244;28;20612;-67
2022/04/24 03:54:45;;;;;;;0.30;0.20;;;12.40;99.90;;;12.69;nan;98809.25;4972944;28;20642;-66
2022/04/24 03:57:13;;;;;;;0.30;0.20;;;12.30;99.90;;;12.74;nan;98812.16;4973732;28;20630;-67
2022/04/24 03:59:40;;;;;;;0.30;0.20;;;12.30;99.90;;;12.68;nan;98816.28;4973515;28;20647;-65
2022/04/24 04:02:07;;;;;;;0.30;0.20;;;12.30;99.90;;;12.65;nan;98821.03;4974050;28;20622;-65
2022/04/24 04:04:34;;;;;;;0.30;0.30;;;12.20;99.90;;;12.63;nan;98826.41;4972623;28;20701;-65
2022/04/24 04:07:01;;;;;;;0.30;0.20;;;12.20;99.90;;;12.60;nan;98818.09;4972446;28;20631;-65
2022/04/24 04:09:28;;;;;;;1.27;1.07;;;12.20;99.90;;;12.67;nan;98826.91;4965985;28;20673;-65
2022/04/24 04:11:56;;;;;;;0.30;0.20;;;12.20;99.90;;;12.62;nan;98823.97;4972546;28;20642;-65
2022/04/24 04:14:23;;;;;;;0.40;0.40;;;12.20;99.90;;;12.53;nan;98825.78;4972015;28;20707;-66
2022/04/24 04:16:50;;;;;;;0.30;0.30;;;12.10;99.90;;;12.46;nan;98825.63;4973030;28;20627;-65
2022/04/24 04:19:18;;;;;;;0.30;0.20;;;12.10;99.90;;;12.52;nan;98828.59;4972662;28;20650;-66
2022/04/24 04:21:45;;;;;;;0.30;0.27;;;12.10;99.90;;;12.54;nan;98827.44;4972752;28;20647;-65
2022/04/24 04:24:12;;;;;;;0.30;0.20;;;12.10;99.90;;;12.54;nan;98829.22;4971198;28;20642;-65
2022/04/24 04:26:40;;;;;;;0.30;0.30;;;12.10;99.90;;;12.44;nan;98827.59;4972978;28;20623;-63
2022/04/24 04:29:07;;;;;;;0.30;0.20;;;12.00;99.90;;;12.32;nan;98833.34;4972014;28;20663;-66
2022/04/24 04:31:34;;;;;;;0.30;0.30;;;11.90;99.90;;;12.30;nan;98823.06;4972029;28;20670;-63
2022/04/24 04:34:02;;;;;;;0.30;0.30;;;11.90;99.90;;;12.11;nan;98828.63;4973293;28;20626;-67
2022/04/24 04:36:29;;;;;;;0.30;0.30;;;11.70;99.90;;;11.96;nan;98832.03;4973997;28;20615;-65
2022/04/24 04:38:56;;;;;;;0.30;0.30;;;11.60;99.90;;;11.91;nan;98835.13;4973138;28;20631;-65
2022/04/24 04:41:24;;;;;;;0.30;0.20;;;11.50;99.90;;;11.78;nan;98832.16;4970580;28;20668;-66
2022/04/24 04:43:51;;;;;;;0.30;0.20;;;11.40;99.90;;;11.87;nan;98833.00;4971928;28;20650;-65
2022/04/24 04:46:18;;;;;;;0.30;0.20;;;11.50;99.90;;;11.89;nan;98834.47;4972290;28;20638;-66
2022/04/24 04:48:45;;;;;;;0.30;0.20;;;11.50;99.90;;;11.87;nan;98835.59;4972938;28;21211;-63
2022/04/24 04:51:12;;;;;;;0.30;0.20;;;11.40;99.90;;;11.89;nan;98841.47;4973493;28;20674;-65
2022/04/24 04:53:39;;;;;;;0.30;0.30;;;11.50;99.90;;;11.83;nan;98835.13;4971547;28;20638;-68
2022/04/24 04:56:06;;;;;;;0.30;0.30;;;11.40;99.90;;;11.76;nan;98843.75;4971790;28;21169;-66
2022/04/24 04:58:33;;;;;;;1.23;1.13;;;11.40;99.90;;;11.78;nan;98853.06;4971590;28;21006;-65
2022/04/24 05:01:00;;;;;;;0.30;0.30;;;11.40;99.90;;;11.81;nan;98844.91;4972300;28;21066;-65
2022/04/24 05:03:28;;;;;;;0.30;0.20;;;11.40;99.90;;;11.80;nan;98847.69;4971028;28;20619;-65
2022/04/24 05:05:55;;;;;;;0.87;0.87;;;11.40;99.90;;;11.72;nan;98845.03;4954806;28;20623;-66
2022/04/24 05:08:22;;;;;;;0.30;0.20;;;11.40;99.90;;;11.76;nan;98854.19;4971526;28;20643;-67
2022/04/24 05:10:49;;;;;;;0.30;0.20;;;11.40;99.90;;;11.78;nan;98854.84;4971816;28;21259;-65
2022/04/24 05:13:16;;;;;;;0.30;0.30;;;11.40;99.90;;;11.79;nan;98859.13;4972527;28;20615;-67
2022/04/24 05:15:43;;;;;;;0.30;0.30;;;11.40;99.90;;;11.58;nan;98859.53;4973033;28;20615;-65
2022/04/24 05:18:10;;;;;;;0.30;0.20;;;11.30;99.90;;;11.47;nan;98852.00;4970743;28;20690;-66
2022/04/24 05:20:37;;;;;;;0.30;0.30;;;11.20;99.90;;;11.48;nan;98867.50;4946479;28;20667;-65
2022/04/24 05:23:05;;;;;;;0.30;0.20;;;11.10;99.90;;;11.47;nan;98870.25;4971293;28;20816;-64
2022/04/24 05:25:33;;;;;;;0.30;0.20;;;11.10;99.90;;;11.48;nan;98861.44;4970683;28;20636;-66
2022/04/24 05:28:02;;;;;;;0.30;0.30;;;11.10;99.90;;;11.45;nan;98859.16;4972393;28;20631;-66
2022/04/24 05:30:29;;;;;;;0.30;0.30;;;11.10;99.90;;;11.52;nan;98865.41;4970573;28;21268;-66
2022/04/24 05:32:58;;;;;;;0.30;0.20;;;11.20;99.90;;;11.51;nan;98876.81;4972556;28;20623;-66
2022/04/24 05:35:26;;;;;;;0.30;0.20;;;11.20;99.90;;;11.52;nan;98881.06;4971776;28;20619;-65
2022/04/24 05:37:53;;;;;;;0.30;0.20;;;11.20;99.90;;;11.66;nan;98877.84;4972160;28;20623;-65
2022/04/24 05:40:20;;;;;;;0.30;0.20;;;11.20;99.90;;;11.67;nan;98882.09;4972092;28;20655;-65
2022/04/24 05:42:49;;;;;;;0.30;0.20;;;11.30;99.90;;;11.65;nan;98881.41;4952185;29;20616;-65
2022/04/24 05:45:18;;;;;;;0.30;0.20;;;11.30;99.90;;;11.60;nan;98887.13;4968482;28;20670;-65
2022/04/24 05:47:46;;;;;;;0.30;0.30;;;11.30;99.90;;;11.63;nan;98883.34;4971894;28;20661;-66
2022/04/24 05:50:14;;;;;;;0.30;0.30;;;11.20;99.90;;;11.63;nan;98888.59;4970257;28;20697;-65
2022/04/24 05:52:41;;;;;;;0.30;0.30;;;11.30;99.90;;;11.57;nan;98889.22;4971434;28;20624;-66
2022/04/24 05:55:09;;;;;;;0.30;0.20;;;11.20;99.90;;;11.73;nan;98886.72;4969734;28;20631;-65
2022/04/24 05:57:37;;;;;;;0.30;0.20;;;11.30;99.90;;;11.79;nan;98896.50;4971269;28;20615;-66
2022/04/24 06:00:09;;;;;;;4.30;1.90;;;11.40;99.90;;;11.82;nan;98898.78;4971292;28;20679;-65
2022/04/24 06:02:36;;;;;;;0.30;0.20;;;11.40;99.90;;;11.93;nan;98897.66;4969839;28;21204;-64
2022/04/24 06:05:03;;;;;;;0.30;0.20;;;11.50;99.90;;;11.89;nan;98898.97;4969939;28;20643;-65
2022/04/24 06:07:30;;;;;;;0.30;0.20;;;11.50;99.90;;;11.94;nan;98897.53;4953761;28;20646;-66
2022/04/24 06:09:57;;;;;;;0.30;0.20;;;11.50;99.90;;;11.90;nan;98893.59;4969192;28;20694;-66
2022/04/24 06:12:24;;;;;;;0.30;0.30;;;11.50;99.90;;;12.00;nan;98904.72;4967486;28;21243;-66
2022/04/24 06:14:51;;;;;;;0.30;0.30;;;11.60;99.90;;;11.92;nan;98894.25;4954556;28;20963;-66
2022/04/24 06:17:18;;;;;;;0.30;0.30;;;11.60;99.90;;;12.00;nan;98896.88;4965076;28;20638;-65
2022/04/24 06:19:45;;;;;;;0.30;0.20;;;11.60;99.90;;;12.06;nan;98909.31;4972099;28;20657;-66
2022/04/24 06:22:12;;;;;;;0.30;0.30;;;11.60;99.90;;;12.11;nan;98896.56;4971138;28;20642;-66
2022/04/24 06:24:39;;;;;;;0.30;0.30;;;11.70;99.90;;;12.19;nan;98900.97;4970619;28;20642;-66
2022/04/24 06:27:06;;;;;;;0.30;0.30;;;11.80;99.90;;;12.25;nan;98905.56;4970046;28;20643;-67
2022/04/24 06:29:33;;;;;;;0.30;0.27;;;11.90;99.90;;;12.30;nan;98911.97;4970600;28;20635;-67
2022/04/24 06:32:01;;;;;;;0.30;0.20;;;11.90;99.90;;;12.33;nan;98902.94;4970169;28;20642;-66
2022/04/24 06:34:28;;;;;;;0.30;0.20;;;11.90;99.90;;;12.42;nan;98908.03;4971735;28;20638;-66
2022/04/24 06:36:55;;;;;;;0.30;0.30;;;12.00;99.90;;;12.40;nan;98904.75;4971091;28;20646;-66
2022/04/24 06:39:21;;;;;;;0.30;0.20;;;12.10;99.90;;;12.44;nan;98908.69;4972395;28;20626;-67
2022/04/24 06:41:48;;;;;;;0.30;0.20;;;12.10;99.90;;;12.37;nan;98912.91;4952074;28;20660;-65
2022/04/24 06:44:15;;;;;;;2.10;2.00;;;12.00;99.90;;;12.39;nan;98910.16;4970802;28;20673;-65
2022/04/24 06:46:43;;;;;;;0.30;0.20;;;12.00;99.90;;;12.38;nan;98919.81;4969905;28;20646;-65
2022/04/24 06:49:10;;;;;;;0.30;0.20;;;12.00;99.90;;;12.33;nan;98927.31;4970636;28;20635;-66
2022/04/24 06:51:37;;;;;;;0.30;0.20;;;12.00;99.90;;;12.36;nan;98924.38;4968818;28;21309;-66
2022/04/24 06:54:04;;;;;;;0.30;0.20;;;12.00;99.90;;;12.35;nan;98927.16;4969434;28;20632;-67
2022/04/24 06:56:31;;;;;;;0.30;0.23;;;12.00;99.90;;;12.34;nan;98931.56;4969664;28;20701;-67
2022/04/24 06:58:58;;;;;;;0.30;0.20;;;12.00;99.90;;;12.30;nan;98930.25;4969662;28;20618;-67
2022/04/24 07:01:26;;;;;;;0.30;0.30;;;11.90;99.90;;;12.34;nan;98928.13;4970902;28;20790;-66
2022/04/24 07:03:54;;;;;;;0.30;0.20;;;12.00;99.90;;;12.36;nan;98934.84;4971089;28;20635;-68
2022/04/24 07:06:22;;;;;;;0.30;0.20;;;12.00;99.90;;;12.39;nan;98928.47;4973056;28;20627;-67
2022/04/24 07:08:49;;;;;;;0.30;0.20;;;12.00;99.90;;;12.36;nan;98934.00;4973575;28;21219;-67
2022/04/24 07:11:17;;;;;;;0.30;0.20;;;12.00;99.90;;;12.34;nan;98939.41;5007609;23;20701;-71
2022/04/24 07:13:44;;;;;;;0.30;0.20;;;12.00;99.90;;;12.27;nan;98935.81;4999585;28;20618;-71
2022/04/24 07:16:11;;;;;;;0.40;0.40;;;11.90;99.90;;;12.28;nan;98936.63;4995330;28;20640;-71
2022/04/24 07:18:38;;;;;;;0.30;0.20;;;11.90;99.90;;;12.37;nan;98938.28;5013810;28;20625;-73
2022/04/24 07:21:06;;;;;;;0.30;0.30;;;12.00;99.90;;;12.34;nan;98934.19;5004011;28;20646;-70
2022/04/24 07:23:33;;;;;;;0.30;0.20;;;12.00;99.90;;;12.40;nan;98935.31;4992007;28;20649;-70
2022/04/24 07:26:00;;;;;;;0.30;0.20;;;12.10;99.90;;;12.42;nan;98934.19;4992022;28;20631;-71
2022/04/24 07:28:30;;;;;;;0.30;0.30;;;12.10;99.90;;;12.36;nan;98934.84;4976877;28;20622;-71
2022/04/24 07:30:57;;;;;;;0.30;0.30;;;12.10;99.90;;;12.35;nan;98938.41;4992362;28;21207;-70
2022/04/24 07:33:24;;;;;;;0.30;0.30;;;12.00;99.90;;;12.34;nan;98942.03;4994235;28;20654;-68
2022/04/24 07:35:52;;;;;;;0.30;0.27;;;12.00;99.90;;;12.37;nan;98941.69;4993001;28;20637;-72
2022/04/24 07:38:19;;;;;;;0.30;0.20;;;12.00;99.90;;;12.24;nan;98940.53;4991333;28;20611;-72
2022/04/24 07:40:46;;;;;;;0.30;0.20;;;11.90;99.90;;;12.15;nan;98939.72;4988643;28;21323;-72
2022/04/24 07:43:13;;;;;;;0.30;0.20;;;11.90;99.90;;;12.22;nan;98938.06;4989294;28;20634;-72
2022/04/24 07:45:49;;;;;;;0.30;0.20;;;11.90;99.90;;;12.19;nan;98938.41;4976343;28;20650;-71
2022/04/24 07:48:18;;;;;;;0.30;0.30;;;11.90;99.90;;;12.25;nan;98934.31;4991705;28;20629;-72
2022/04/24 07:50:49;;;;;;;0.30;0.20;;;11.90;99.90;;;12.23;nan;98942.34;4990678;28;21091;-75
2022/04/24 07:53:18;;;;;;;0.30;0.20;;;11.90;99.90;;;12.34;nan;98941.19;4972330;28;21028;-72
2022/04/24 07:55:47;;;;;;;0.30;0.30;;;12.00;99.90;;;12.44;nan;98954.94;4973507;28;20631;-72
2022/04/24 07:58:14;;;;;;;0.30;0.20;;;12.10;99.90;;;12.42;nan;98954.28;4973101;28;20619;-70
2022/04/24 08:00:42;;;;;;;0.30;0.30;;;12.10;99.90;;;12.53;nan;98961.81;4992617;28;20665;-72
2022/04/24 08:03:12;;;;;;;0.30;0.20;;;12.20;99.90;;;12.48;nan;98949.22;4993012;28;20617;-72
2022/04/24 08:05:51;;;;;;;0.30;0.23;;;12.20;99.90;;;12.54;nan;98955.63;4991572;28;21208;-73
2022/04/24 08:08:21;;;;;;;0.30;0.30;;;12.20;99.90;;;12.45;nan;98957.41;4987575;28;20634;-70
2022/04/24 08:10:54;;;;;;;0.30;0.20;;;12.20;99.90;;;12.49;nan;98957.91;4989068;28;20678;-69
2022/04/24 08:13:22;;;;;;;0.30;0.30;;;12.10;99.90;;;12.52;nan;98959.38;4981941;28;20643;-75
2022/04/24 08:15:51;;;;;;;0.30;0.23;;;12.10;99.90;;;12.46;nan;98966.88;4987610;28;20600;-72
2022/04/24 08:18:18;;;;;;;0.30;0.20;;;12.10;99.90;;;12.54;nan;98962.66;4985399;28;20689;-71
2022/04/24 08:20:45;;;;;;;0.30;0.30;;;12.20;99.90;;;12.57;nan;98967.53;4990772;28;20658;-72
2022/04/24 08:23:17;;;;;;;0.30;0.30;;;12.20;99.90;;;12.63;nan;98964.28;4990579;28;21033;-69
2022/04/24 08:25:45;;;;;;;0.30;0.20;;;12.30;99.90;;;12.66;nan;98962.16;4991360;28;20653;-72
2022/04/24 08:28:14;;;;;;;0.30;0.30;;;12.30;99.90;;;12.73;nan;98959.69;4990380;28;20645;-72
2022/04/24 08:30:44;;;;;;;0.30;0.30;;;12.40;99.90;;;12.81;nan;98954.47;4971363;28;20729;-73
2022/04/24 08:33:12;;;;;;;3.17;2.93;;;12.50;99.90;;;12.72;nan;98960.66;4969860;28;20638;-68
2022/04/24 08:35:39;;;;;;;0.30;0.20;;;12.40;99.90;;;12.75;nan;98960.34;4990480;28;20697;-72
2022/04/24 08:38:06;;;;;;;1.37;0.63;;;12.40;99.90;;;12.70;nan;98971.31;4991059;28;21124;-71
2022/04/24 08:40:34;;;;;;;0.30;0.20;;;12.40;99.90;;;12.71;nan;98975.56;4988373;28;20784;-70
2022/04/24 08:43:01;;;;;;;0.30;0.20;;;12.40;99.90;;;12.64;nan;98982.44;4991493;28;20704;-70
2022/04/24 08:45:30;;;;;;;0.30;0.30;;;12.40;99.90;;;12.67;nan;98973.44;4990848;28;20637;-70
2022/04/24 08:47:58;;;;;;;0.30;0.30;;;12.30;99.90;;;12.72;nan;98989.44;4989433;28;20636;-71
2022/04/24 08:50:31;;;;;;;0.30;0.20;;;12.30;99.90;;;12.79;nan;98987.81;4988841;28;20666;-70
2022/04/24 08:52:59;;;;;;;0.30;0.30;;;12.40;99.90;;;12.82;nan;98975.22;4990452;28;20614;-71
2022/04/24 08:55:28;;;;;;;0.30;0.30;;;12.40;99.90;;;12.84;nan;98980.31;4979605;28;20681;-72
2022/04/24 08:57:56;;;;;;;0.30;0.30;;;12.50;99.90;;;12.79;nan;98988.66;4972130;28;21023;-69
2022/04/24 09:00:25;;;;;;;0.30;0.30;;;12.40;99.90;;;12.88;nan;98986.84;4976530;28;20643;-69
2022/04/24 09:02:52;;;;;;;0.30;0.30;;;12.50;99.90;;;12.86;nan;98994.06;4972427;28;20631;-69
2022/04/24 09:05:21;;;;;;;1.80;0.77;;;12.60;99.90;;;12.92;nan;98988.97;4987597;28;20692;-69
2022/04/24 09:07:52;;;;;;;1.20;1.13;;;12.60;99.90;;;12.97;nan;98988.47;4990088;28;20618;-73
2022/04/24 09:10:54;;;;;;;0.30;0.30;;;12.60;99.90;;;13.08;nan;98988.16;4986672;28;20674;-72
2022/04/24 09:16:37;;;;;;;0.50;0.50;;;12.80;99.90;;;13.09;nan;98981.94;4991337;28;20622;-72
2022/04/24 09:19:20;;;;;;;0.30;0.30;;;12.80;99.90;;;13.14;nan;98992.72;4989303;28;20987;-74
2022/04/24 09:21:53;;;;;;;0.73;0.73;;;12.80;99.90;;;13.20;nan;98986.84;4989319;28;20644;-71
2022/04/24 09:24:20;;;;;;;0.30;0.20;;;12.90;99.90;;;13.16;nan;98980.31;4989001;28;20634;-70
2022/04/24 09:26:54;;;;;;;0.30;0.20;;;12.90;99.90;;;13.26;nan;98991.41;4990595;28;20622;-71
2022/04/24 09:29:22;;;;;;;0.30;0.30;;;13.00;99.90;;;13.29;nan;98988.44;4989447;28;20626;-70
2022/04/24 09:31:51;;;;;;;0.30;0.30;;;13.00;99.90;;;13.38;nan;98997.09;4990185;28;20674;-72
2022/04/24 09:34:20;;;;;;;0.30;0.20;;;13.10;99.90;;;13.42;nan;98991.38;4988102;28;20644;-69
2022/04/24 09:37:00;;;;;;;0.30;0.27;;;13.20;99.90;;;13.52;nan;98994.59;4970532;28;20638;-70
2022/04/24 09:39:33;;;;;;;0.30;0.20;;;13.30;99.90;;;13.46;nan;98999.72;4978292;28;20636;-71
2022/04/24 09:42:11;;;;;;;0.30;0.20;;;13.30;99.90;;;13.49;nan;99008.06;4972672;28;20742;-70
2022/04/24 09:44:50;;;;;;;0.30;0.30;;;13.30;99.90;;;13.51;nan;99002.66;4969795;28;20631;-70
2022/04/24 09:47:37;;;;;;;0.30;0.20;;;13.30;99.90;;;13.56;nan;99011.66;4970803;28;20666;-70
2022/04/24 09:50:09;;;;;;;0.30;0.20;;;13.30;99.90;;;13.66;nan;99014.06;4981529;28;20688;-72
2022/04/24 09:52:44;;;;;;;0.40;0.40;;;13.40;99.90;;;13.73;nan;99008.00;4981958;28;21069;-70
2022/04/24 09:55:13;;;;;;;0.30;0.20;;;13.50;99.90;;;13.76;nan;99023.38;4990125;28;20614;-72
2022/04/24 09:57:40;;;;;;;0.30;0.30;;;13.50;99.90;;;13.83;nan;99015.66;4991196;28;21183;-69
2022/04/24 10:00:09;;;;;;;0.30;0.20;;;13.50;99.90;;;13.82;nan;99019.28;4985176;28;20626;-74
2022/04/24 10:02:36;;;;;;;0.40;0.40;;;13.50;99.90;;;13.82;nan;99014.03;4989103;28;20618;-74
2022/04/24 10:05:06;;;;;;;0.30;0.30;;;13.50;99.90;;;13.85;nan;99024.97;4982314;28;20634;-74
2022/04/24 10:07:33;;;;;;;0.30;0.20;;;13.50;99.90;;;13.91;nan;99024.28;4979500;28;20677;-72
2022/04/24 10:10:01;;;;;;;0.30;0.30;;;13.60;99.90;;;13.90;nan;99022.69;4981918;28;20635;-72
2022/04/24 10:12:30;;;;;;;0.30;0.20;;;13.60;99.90;;;13.89;nan;99018.41;4989397;28;20686;-72
2022/04/24 10:15:05;;;;;;;0.30;0.20;;;13.60;99.90;;;13.91;nan;99029.53;4989997;28;20626;-73
2022/04/24 10:17:57;;;;;;;0.30;0.27;;;13.70;99.90;;;13.97;nan;99031.47;4988096;28;20630;-74
2022/04/24 10:20:50;;;;;;;0.30;0.30;;;13.80;99.90;;;13.95;nan;99036.06;4989632;28;20642;-73
2022/04/24 10:23:32;;;;;;;0.30;0.20;;;13.80;99.90;;;14.12;nan;99038.66;4989699;28;20618;-73
2022/04/24 10:26:00;;;;;;;0.30;0.20;;;13.90;99.90;;;14.24;nan;99032.84;4990456;28;20606;-72
2022/04/24 10:28:37;;;;;;;0.30;0.30;;;14.00;99.90;;;14.37;nan;99045.44;4990876;28;20638;-72
2022/04/24 10:31:06;;;;;;;0.30;0.30;;;14.20;99.90;;;14.44;nan;99047.19;4989300;28;20662;-73
2022/04/24 10:33:36;;;;;;;0.30;0.30;;;14.20;99.90;;;14.49;nan;99052.75;4988744;28;20641;-73
2022/04/24 10:36:05;;;;;;;0.30;0.20;;;14.30;99.90;;;14.52;nan;99046.34;4984266;28;20646;-72
2022/04/24 10:38:46;;;;;;;0.30;0.30;;;14.40;99.90;;;14.51;nan;99050.75;4989815;28;20641;-72
2022/04/24 10:41:24;;;;;;;0.30;0.30;;;14.30;99.90;;;14.58;nan;99049.09;4994839;28;20642;-72
2022/04/24 10:43:58;;;;;;;0.30;0.23;;;14.40;99.90;;;14.65;nan;99051.84;4988634;28;21049;-72